createdAt,value
2022-08-20T00:00:22.640Z,100685.19
2022-08-20T00:02:55.760Z,100689.59
2022-08-20T00:05:46.016Z,100686.81
2022-08-20T00:08:14.335Z,100696.78
2022-08-20T00:10:47.597Z,100694.44
2022-08-20T00:13:21.715Z,100696.81
2022-08-20T00:15:49.008Z,100686.09
2022-08-20T00:18:16.573Z,100682.91
2022-08-20T00:20:47.312Z,100694.81
2022-08-20T00:23:15.982Z,100690.84
2022-08-20T00:25:44.530Z,100692.44
2022-08-20T00:28:13.193Z,100690.09
2022-08-20T00:30:43.050Z,100699.22
2022-08-20T00:33:14.133Z,100692.06
2022-08-20T00:35:45.193Z,100685.31
2022-08-20T00:38:13.262Z,100682.94
2022-08-20T00:40:53.625Z,100689.28
2022-08-20T00:43:34.807Z,100694.84
2022-08-20T00:46:11.381Z,100696.44
2022-08-20T00:48:41.181Z,100695.25
2022-08-20T00:51:15.392Z,100688.50
2022-08-20T00:53:43.486Z,100695.22
2022-08-20T00:56:12.921Z,100694.06
2022-08-20T00:58:40.769Z,100696.44
2022-08-20T01:01:09.646Z,100701.63
2022-08-20T01:03:37.315Z,100698.44
2022-08-20T01:06:05.069Z,100698.41
2022-08-20T01:08:32.333Z,100697.56
2022-08-20T01:11:10.645Z,100703.53
2022-08-20T01:13:39.827Z,100704.75
2022-08-20T01:16:28.163Z,100688.03
2022-08-20T01:18:57.813Z,100696.34
2022-08-20T01:21:31.853Z,100697.97
2022-08-20T01:24:12.842Z,100696.78
2022-08-20T01:26:44.247Z,100696.38
2022-08-20T01:29:16.343Z,100699.13
2022-08-20T01:31:44.613Z,100699.56
2022-08-20T01:34:15.161Z,100701.13
2022-08-20T01:36:46.695Z,100704.69
2022-08-20T01:39:17.901Z,100693.19
2022-08-20T01:41:46.015Z,100697.91
2022-08-20T01:44:17.007Z,100698.31
2022-08-20T01:46:47.897Z,100701.44
2022-08-20T01:49:23.771Z,100695.44
2022-08-20T01:51:53.193Z,100699.41
2022-08-20T01:54:21.564Z,100699.31
2022-08-20T01:57:00.107Z,100701.66
2022-08-20T01:59:28.753Z,100702.00
2022-08-20T02:01:58.586Z,100702.00
2022-08-20T02:04:27.231Z,100705.97
2022-08-20T02:06:57.886Z,100703.19
2022-08-20T02:09:27.648Z,100699.56
2022-08-20T02:11:55.024Z,100699.22
2022-08-20T02:14:22.366Z,100710.28
2022-08-20T02:16:55.033Z,100716.22
2022-08-20T02:19:28.071Z,100715.81
2022-08-20T02:21:58.977Z,100728.50
2022-08-20T02:24:26.240Z,100723.72
2022-08-20T02:26:53.623Z,100719.75
2022-08-20T02:29:20.741Z,100713.81
2022-08-20T02:32:24.490Z,100714.22
2022-08-20T02:34:36.040Z,100717.81
2022-08-20T02:37:05.296Z,100717.41
2022-08-20T02:39:32.881Z,100724.59
2022-08-20T02:42:00.337Z,100724.63
2022-08-20T02:44:27.678Z,100714.69
2022-08-20T02:46:54.837Z,100712.69
2022-08-20T02:49:22.583Z,100719.84
2022-08-20T02:51:49.927Z,100722.63
2022-08-20T02:54:18.038Z,100727.00
2022-08-20T02:56:45.321Z,100715.91
2022-08-20T02:59:19.560Z,100720.28
2022-08-20T03:01:55.880Z,100715.94
2022-08-20T03:04:29.642Z,100720.72
2022-08-20T03:06:57.624Z,100719.94
2022-08-20T03:09:25.039Z,100723.56
2022-08-20T03:11:53.108Z,100727.50
2022-08-20T03:14:20.245Z,100725.91
2022-08-20T03:16:47.659Z,100731.06
2022-08-20T03:19:14.842Z,100725.13
2022-08-20T03:21:42.607Z,100731.03
2022-08-20T03:24:09.861Z,100729.03
2022-08-20T03:26:37.286Z,100733.38
2022-08-20T03:29:04.978Z,100733.78
2022-08-20T03:31:32.249Z,100739.72
2022-08-20T03:33:59.451Z,100733.78
2022-08-20T03:36:29.096Z,100734.97
2022-08-20T03:38:57.745Z,100731.00
2022-08-20T03:41:25.863Z,100742.13
2022-08-20T03:43:53.267Z,100748.91
2022-08-20T03:46:22.899Z,100747.34
2022-08-20T03:48:56.637Z,100756.09
2022-08-20T03:51:30.798Z,100753.75
2022-08-20T03:53:59.157Z,100757.75
2022-08-20T03:56:26.935Z,100758.97
2022-08-20T03:58:54.482Z,100760.91
2022-08-20T04:01:45.258Z,100763.69
2022-08-20T04:04:12.106Z,100752.22
2022-08-20T04:06:40.568Z,100755.81
2022-08-20T04:09:09.519Z,100757.03
2022-08-20T04:11:38.730Z,100755.81
2022-08-20T04:14:05.998Z,100763.78
2022-08-20T04:16:33.555Z,100766.16
2022-08-20T04:19:02.408Z,100772.13
2022-08-20T04:21:34.699Z,100774.16
2022-08-20T04:24:04.679Z,100766.22
2022-08-20T04:26:31.926Z,100766.63
2022-08-20T04:28:59.489Z,100765.03
2022-08-20T04:31:33.534Z,100769.03
2022-08-20T04:34:08.140Z,100769.81
2022-08-20T04:36:35.803Z,100767.06
2022-08-20T04:39:03.089Z,100773.84
2022-08-20T04:41:30.326Z,100775.47
2022-08-20T04:43:58.492Z,100776.69
2022-08-20T04:46:28.853Z,100787.06
2022-08-20T04:48:57.754Z,100786.72
2022-08-20T04:51:27.007Z,100789.47
2022-08-20T04:53:56.488Z,100789.50
2022-08-20T04:56:27.325Z,100776.22
2022-08-20T04:58:57.431Z,100781.28
2022-08-20T05:01:26.369Z,100769.63
2022-08-20T05:03:55.112Z,100765.16
2022-08-20T05:06:25.878Z,100762.81
2022-08-20T05:08:53.944Z,100762.94
2022-08-20T05:11:33.807Z,100766.88
2022-08-20T05:14:09.342Z,100767.06
2022-08-20T05:16:39.021Z,100766.72
2022-08-20T05:19:12.081Z,100761.28
2022-08-20T05:21:40.286Z,100769.81
2022-08-20T05:24:08.070Z,100772.94
2022-08-20T05:26:35.421Z,100780.94
2022-08-20T05:29:05.371Z,100783.72
2022-08-20T05:31:33.777Z,100790.44
2022-08-20T05:34:10.845Z,100786.47
2022-08-20T05:36:46.961Z,100796.94
2022-08-20T05:39:18.455Z,100788.94
2022-08-20T05:41:45.742Z,100803.31
2022-08-20T05:44:16.257Z,100795.41
2022-08-20T05:46:45.142Z,100798.44
2022-08-20T05:49:16.868Z,100802.31
2022-08-20T05:51:44.352Z,100799.59
2022-08-20T05:54:12.590Z,100786.34
2022-08-20T05:56:42.664Z,100792.97
2022-08-20T05:59:12.809Z,100794.00
2022-08-20T06:01:43.911Z,100791.94
2022-08-20T06:04:32.066Z,100793.69
2022-08-20T06:07:05.553Z,100779.91
2022-08-20T06:09:33.287Z,100786.59
2022-08-20T06:12:03.017Z,100781.59
2022-08-20T06:14:31.314Z,100781.19
2022-08-20T06:17:15.366Z,100786.81
2022-08-20T06:19:44.799Z,100789.09
2022-08-20T06:22:20.486Z,100784.91
2022-08-20T06:24:52.191Z,100784.03
2022-08-20T06:27:19.901Z,100790.03
2022-08-20T06:29:47.318Z,100787.75
2022-08-20T06:32:15.119Z,100790.41
2022-08-20T06:34:48.997Z,100793.78
2022-08-20T06:37:22.050Z,100796.88
2022-08-20T06:39:51.049Z,100795.78
2022-08-20T06:42:21.137Z,100800.72
2022-08-20T06:44:50.529Z,100803.59
2022-08-20T06:47:20.146Z,100798.50
2022-08-20T06:49:48.934Z,100796.63
2022-08-20T06:52:17.301Z,100807.25
2022-08-20T06:54:46.102Z,100802.19
2022-08-20T06:57:13.421Z,100786.09
2022-08-20T06:59:42.173Z,100785.00
2022-08-20T07:02:09.419Z,100783.13
2022-08-20T07:04:37.592Z,100786.91
2022-08-20T07:07:05.104Z,100789.22
2022-08-20T07:09:32.368Z,100787.03
2022-08-20T07:11:59.538Z,100797.69
2022-08-20T07:14:27.361Z,100801.91
2022-08-20T07:16:54.612Z,100799.72
2022-08-20T07:19:21.985Z,100795.03
2022-08-20T07:21:50.910Z,100799.06
2022-08-20T07:24:18.388Z,100800.50
2022-08-20T07:26:46.301Z,100797.66
2022-08-20T07:29:13.773Z,100804.22
2022-08-20T07:32:00.001Z,100801.44
2022-08-20T07:34:27.494Z,100805.19
2022-08-20T07:36:55.258Z,100799.53
2022-08-20T07:39:23.029Z,100795.38
2022-08-20T07:42:03.435Z,100798.84
2022-08-20T07:44:31.440Z,100803.78
2022-08-20T07:46:59.925Z,100809.53
2022-08-20T07:49:27.725Z,100810.59
2022-08-20T07:51:54.940Z,100809.44
2022-08-20T07:54:24.431Z,100813.75
2022-08-20T07:56:51.751Z,100811.56
2022-08-20T07:59:20.503Z,100816.56
2022-08-20T08:01:47.971Z,100813.50
2022-08-20T08:04:16.351Z,100808.19
2022-08-20T08:06:45.533Z,100808.28
2022-08-20T08:09:14.502Z,100810.16
2022-08-20T08:11:50.633Z,100806.09
2022-08-20T08:14:26.935Z,100814.81
2022-08-20T08:16:57.557Z,100819.69
2022-08-20T08:19:26.452Z,100828.22
2022-08-20T08:21:53.965Z,100823.72
2022-08-20T08:24:25.371Z,100832.75
2022-08-20T08:26:56.798Z,100837.88
2022-08-20T08:29:24.115Z,100837.97
2022-08-20T08:31:51.324Z,100828.22
2022-08-20T08:34:18.692Z,100835.31
2022-08-20T08:37:34.775Z,100838.41
2022-08-20T08:40:02.821Z,100844.50
2022-08-20T08:42:32.851Z,100834.91
2022-08-20T08:45:00.926Z,100829.88
2022-08-20T08:47:35.853Z,100835.88
2022-08-20T08:50:06.218Z,100828.16
2022-08-20T08:52:41.260Z,100840.94
2022-08-20T08:55:16.339Z,100837.31
2022-08-20T08:57:44.447Z,100829.38
2022-08-20T09:00:18.099Z,100828.41
2022-08-20T09:03:09.952Z,100831.22
2022-08-20T09:05:43.631Z,100834.38
2022-08-20T09:08:19.565Z,100824.56
2022-08-20T09:10:46.901Z,100831.31
2022-08-20T09:13:14.536Z,100828.50
2022-08-20T09:15:42.555Z,100834.09
2022-08-20T09:18:09.973Z,100821.88
2022-08-20T09:20:38.206Z,100827.84
2022-08-20T09:23:08.636Z,100828.41
2022-08-20T09:25:36.110Z,100820.91
2022-08-20T09:28:03.771Z,100828.50
2022-08-20T09:30:32.347Z,100821.69
2022-08-20T09:33:00.844Z,100826.47
2022-08-20T09:35:31.874Z,100829.69
2022-08-20T09:37:59.611Z,100823.13
2022-08-20T09:40:27.048Z,100830.63
2022-08-20T09:42:54.508Z,100830.09
2022-08-20T09:45:21.984Z,100825.00
2022-08-20T09:47:56.961Z,100816.41
2022-08-20T09:50:30.534Z,100824.06
2022-08-20T09:52:59.881Z,100814.81
2022-08-20T09:55:45.160Z,100817.59
2022-08-20T09:58:44.719Z,100814.00
2022-08-20T10:01:16.323Z,100805.66
2022-08-20T10:03:45.156Z,100802.78
2022-08-20T10:06:14.901Z,100811.56
2022-08-20T10:08:42.103Z,100810.56
2022-08-20T10:11:09.683Z,100809.75
2022-08-20T10:13:36.863Z,100815.28
2022-08-20T10:16:04.519Z,100812.75
2022-08-20T10:18:31.770Z,100813.41
2022-08-20T10:20:59.014Z,100807.94
2022-08-20T10:23:26.475Z,100812.00
2022-08-20T10:25:53.701Z,100808.91
2022-08-20T10:28:21.151Z,100812.50
2022-08-20T10:30:48.313Z,100808.44
2022-08-20T10:33:15.581Z,100804.53
2022-08-20T10:35:42.798Z,100811.00
2022-08-20T10:38:10.094Z,100813.66
2022-08-20T10:40:37.329Z,100808.13
2022-08-20T10:43:04.844Z,100813.34
2022-08-20T10:45:32.008Z,100812.50
2022-08-20T10:48:01.005Z,100816.25
2022-08-20T10:50:31.183Z,100818.41
2022-08-20T10:52:59.251Z,100814.97
2022-08-20T10:55:26.735Z,100807.91
2022-08-20T10:57:53.993Z,100817.34
2022-08-20T11:00:21.273Z,100812.53
2022-08-20T11:02:48.502Z,100817.13
2022-08-20T11:05:16.126Z,100827.72
2022-08-20T11:07:55.439Z,100823.31
2022-08-20T11:10:30.434Z,100819.75
2022-08-20T11:12:58.029Z,100823.66
2022-08-20T11:15:25.529Z,100824.22
2022-08-20T11:17:53.305Z,100828.25
2022-08-20T11:20:23.920Z,100829.09
2022-08-20T11:22:51.291Z,100829.41
2022-08-20T11:25:19.427Z,100830.19
2022-08-20T11:27:49.989Z,100832.94
2022-08-20T11:30:27.469Z,100832.16
2022-08-20T11:32:55.218Z,100824.38
2022-08-20T11:35:42.254Z,100825.34
2022-08-20T11:38:11.368Z,100836.75
2022-08-20T11:40:38.881Z,100839.00
2022-08-20T11:43:15.098Z,100836.81
2022-08-20T11:45:46.098Z,100830.72
2022-08-20T11:48:13.832Z,100833.41
2022-08-20T11:50:42.034Z,100835.94
2022-08-20T11:53:09.388Z,100826.59
2022-08-20T11:55:37.718Z,100827.38
2022-08-20T11:58:07.157Z,100840.22
2022-08-20T12:00:37.029Z,100850.28
2022-08-20T12:03:09.173Z,100845.22
2022-08-20T12:05:41.192Z,100844.16
2022-08-20T12:08:09.495Z,100832.31
2022-08-20T12:10:38.289Z,100823.88
2022-08-20T12:13:07.016Z,100825.41
2022-08-20T12:15:36.334Z,100819.81
2022-08-20T12:18:10.818Z,100828.81
2022-08-20T12:20:38.360Z,100829.38
2022-08-20T12:23:05.677Z,100836.22
2022-08-20T12:25:33.062Z,100837.41
2022-08-20T12:28:00.358Z,100825.66
2022-08-20T12:30:27.618Z,100816.56
2022-08-20T12:32:54.880Z,100821.16
2022-08-20T12:35:22.253Z,100821.25
2022-08-20T12:37:49.617Z,100832.31
2022-08-20T12:40:31.859Z,100827.50
2022-08-20T12:43:02.566Z,100825.03
2022-08-20T12:45:30.817Z,100823.28
2022-08-20T12:48:10.687Z,100823.72
2022-08-20T12:50:40.372Z,100830.88
2022-08-20T12:53:07.637Z,100828.41
2022-08-20T12:55:35.901Z,100829.06
2022-08-20T12:58:04.531Z,100822.03
2022-08-20T13:00:43.399Z,100819.91
2022-08-20T13:03:12.908Z,100821.97
2022-08-20T13:05:40.851Z,100809.63
2022-08-20T13:08:10.571Z,100829.53
2022-08-20T13:10:45.867Z,100820.66
2022-08-20T13:13:17.456Z,100814.94
2022-08-20T13:15:47.883Z,100826.47
2022-08-20T13:18:15.332Z,100820.59
2022-08-20T13:20:42.737Z,100820.47
2022-08-20T13:23:10.121Z,100815.06
2022-08-20T13:25:37.485Z,100813.28
2022-08-20T13:28:06.154Z,100811.91
2022-08-20T13:30:35.339Z,100806.53
2022-08-20T13:33:02.739Z,100805.38
2022-08-20T13:35:31.614Z,100806.41
2022-08-20T13:37:59.036Z,100811.72
2022-08-20T13:40:26.580Z,100806.31
2022-08-20T13:42:54.218Z,100790.13
2022-08-20T13:45:21.686Z,100799.88
2022-08-20T13:47:53.391Z,100793.22
2022-08-20T13:50:22.996Z,100786.91
2022-08-20T13:52:50.689Z,100784.69
2022-08-20T13:55:20.532Z,100781.38
2022-08-20T13:57:49.495Z,100775.09
2022-08-20T14:00:31.000Z,100771.94
2022-08-20T14:03:02.074Z,100785.94
2022-08-20T14:05:30.759Z,100778.88
2022-08-20T14:08:09.497Z,100775.63
2022-08-20T14:10:37.305Z,100772.44
2022-08-20T14:13:06.872Z,100780.09
2022-08-20T14:15:35.773Z,100770.97
2022-08-20T14:18:04.434Z,100773.84
2022-08-20T14:20:33.814Z,100778.53
2022-08-20T14:23:01.861Z,100771.50
2022-08-20T14:25:32.511Z,100772.28
2022-08-20T14:28:10.720Z,100770.28
2022-08-20T14:30:38.031Z,100769.56
2022-08-20T14:33:05.318Z,100774.75
2022-08-20T14:35:32.554Z,100773.53
2022-08-20T14:38:01.724Z,100772.94
2022-08-20T14:40:33.611Z,100764.88
2022-08-20T14:43:01.134Z,100762.75
2022-08-20T14:45:28.379Z,100764.22
2022-08-20T14:47:58.003Z,100765.53
2022-08-20T14:50:27.229Z,100760.56
2022-08-20T14:52:55.766Z,100757.16
2022-08-20T14:55:26.737Z,100765.28
2022-08-20T14:57:54.839Z,100759.88
2022-08-20T15:00:25.831Z,100761.94
2022-08-20T15:02:53.854Z,100762.09
2022-08-20T15:05:21.162Z,100763.09
2022-08-20T15:07:51.569Z,100749.31
2022-08-20T15:10:28.863Z,100747.56
2022-08-20T15:12:56.526Z,100765.09
2022-08-20T15:15:26.875Z,100745.25
2022-08-20T15:17:57.208Z,100744.19
2022-08-20T15:20:27.871Z,100754.34
2022-08-20T15:22:55.840Z,100747.94
2022-08-20T15:25:25.408Z,100751.41
2022-08-20T15:27:59.296Z,100752.59
2022-08-20T15:30:31.192Z,100759.59
2022-08-20T15:32:58.888Z,100750.72
2022-08-20T15:35:28.285Z,100741.44
2022-08-20T15:37:58.229Z,100751.00
2022-08-20T15:40:28.845Z,100759.41
2022-08-20T15:43:01.548Z,100751.50
2022-08-20T15:45:29.213Z,100747.25
2022-08-20T15:48:10.682Z,100737.34
2022-08-20T15:51:04.281Z,100748.19
2022-08-20T15:54:14.771Z,100747.34
2022-08-20T15:57:07.629Z,100750.03
2022-08-20T15:59:37.459Z,100740.53
2022-08-20T16:02:22.569Z,100746.19
2022-08-20T16:05:07.751Z,100750.09
2022-08-20T16:07:55.372Z,100739.63
2022-08-20T16:10:50.372Z,100746.34
2022-08-20T16:13:28.996Z,100742.19
2022-08-20T16:15:59.832Z,100748.91
2022-08-20T16:18:35.047Z,100731.75
2022-08-20T16:21:08.640Z,100745.09
2022-08-20T16:23:40.193Z,100735.19
2022-08-20T16:26:37.654Z,100736.34
2022-08-20T16:29:40.018Z,100735.16
2022-08-20T16:32:13.611Z,100730.41
2022-08-20T16:35:03.262Z,100723.22
2022-08-20T16:37:38.307Z,100729.25
2022-08-20T16:40:05.781Z,100719.97
2022-08-20T16:42:41.964Z,100718.38
2022-08-20T16:45:17.087Z,100725.06
2022-08-20T16:47:46.862Z,100731.06
2022-08-20T16:50:17.522Z,100730.66
2022-08-20T16:52:47.009Z,100730.31
2022-08-20T16:55:14.834Z,100727.91
2022-08-20T16:57:43.205Z,100727.97
2022-08-20T17:00:14.011Z,100742.06
2022-08-20T17:02:57.799Z,100739.25
2022-08-20T17:05:28.718Z,100739.06
2022-08-20T17:08:02.057Z,100745.97
2022-08-20T17:10:35.848Z,100742.47
2022-08-20T17:13:15.145Z,100750.94
2022-08-20T17:15:44.487Z,100750.56
2022-08-20T17:18:48.576Z,100765.69
2022-08-20T17:21:23.326Z,100758.91
2022-08-20T17:24:17.356Z,100780.16
2022-08-20T17:26:49.593Z,100773.81
2022-08-20T17:29:24.170Z,100784.25
2022-08-20T17:31:54.375Z,100782.75
2022-08-20T17:34:33.403Z,100778.09
2022-08-20T17:37:21.323Z,100784.50
2022-08-20T17:39:54.364Z,100783.75
2022-08-20T17:42:25.876Z,100786.97
2022-08-20T17:45:09.966Z,100785.34
2022-08-20T17:47:40.392Z,100783.78
2022-08-20T17:50:20.689Z,100790.97
2022-08-20T17:52:52.235Z,100778.19
2022-08-20T17:55:20.517Z,100785.41
2022-08-20T17:57:56.442Z,100791.78
2022-08-20T18:00:28.549Z,100792.16
2022-08-20T18:03:23.858Z,100801.41
2022-08-20T18:06:02.511Z,100807.81
2022-08-20T18:08:39.798Z,100805.81
2022-08-20T18:11:12.745Z,100809.00
2022-08-20T18:13:45.013Z,100799.81
2022-08-20T18:16:26.228Z,100818.16
2022-08-20T18:19:03.842Z,100807.00
2022-08-20T18:21:39.841Z,100815.78
2022-08-20T18:24:15.691Z,100808.25
2022-08-20T18:27:01.362Z,100813.06
2022-08-20T18:29:34.174Z,100813.47
2022-08-20T18:32:06.002Z,100811.88
2022-08-20T18:34:33.094Z,100807.13
2022-08-20T18:37:21.564Z,100807.94
2022-08-20T18:39:50.425Z,100821.50
2022-08-20T18:42:32.192Z,100807.97
2022-08-20T18:45:00.438Z,100803.19
2022-08-20T18:47:40.932Z,100809.56
2022-08-20T18:50:15.945Z,100810.38
2022-08-20T18:52:53.300Z,100816.38
2022-08-20T18:55:33.301Z,100824.38
2022-08-20T18:58:06.909Z,100824.41
2022-08-20T19:00:42.607Z,100824.81
2022-08-20T19:03:22.357Z,100821.19
2022-08-20T19:06:02.624Z,100822.81
2022-08-20T19:08:55.479Z,100824.81
2022-08-20T19:11:59.499Z,100828.44
2022-08-20T19:14:39.766Z,100818.00
2022-08-20T19:17:14.317Z,100816.38
2022-08-20T19:19:41.665Z,100816.00
2022-08-20T19:22:13.326Z,100819.47
2022-08-20T19:24:44.504Z,100810.69
2022-08-20T19:27:13.394Z,100810.28
2022-08-20T19:29:47.299Z,100811.47
2022-08-20T19:32:24.421Z,100818.66
2022-08-20T19:35:03.048Z,100811.88
2022-08-20T19:37:46.552Z,100811.88
2022-08-20T19:40:21.499Z,100804.72
2022-08-20T19:42:49.519Z,100805.88
2022-08-20T19:45:25.553Z,100799.09
2022-08-20T19:48:14.434Z,100803.88
2022-08-20T19:50:54.742Z,100798.69
2022-08-20T19:53:35.136Z,100794.31
2022-08-20T19:56:04.330Z,100801.91
2022-08-20T19:58:33.050Z,100798.31
2022-08-20T20:01:03.253Z,100801.09
2022-08-20T20:03:34.534Z,100810.34
2022-08-20T20:06:16.887Z,100807.97
2022-08-20T20:09:16.176Z,100816.75
2022-08-20T20:11:48.410Z,100826.28
2022-08-20T20:14:18.346Z,100820.78
2022-08-20T20:16:49.271Z,100821.22
2022-08-20T20:19:32.698Z,100822.03
2022-08-20T20:22:18.865Z,100822.06
2022-08-20T20:25:00.353Z,100824.84
2022-08-20T20:27:29.238Z,100822.09
2022-08-20T20:30:07.757Z,100832.91
2022-08-20T20:32:35.416Z,100834.50
2022-08-20T20:35:06.305Z,100835.72
2022-08-20T20:37:50.231Z,100834.50
2022-08-20T20:40:25.897Z,100829.75
2022-08-20T20:43:09.154Z,100830.16
2022-08-20T20:45:46.409Z,100830.16
2022-08-20T20:48:27.817Z,100831.38
2022-08-20T20:51:01.127Z,100829.00
2022-08-20T20:53:51.679Z,100832.59
2022-08-20T20:56:42.724Z,100833.44
2022-08-20T20:59:10.832Z,100834.63
2022-08-20T21:01:48.907Z,100836.22
2022-08-20T21:04:23.729Z,100841.38
2022-08-20T21:06:53.361Z,100844.59
2022-08-20T21:09:22.488Z,100849.78
2022-08-20T21:11:49.940Z,100858.94
2022-08-20T21:14:18.167Z,100852.97
2022-08-20T21:16:45.632Z,100854.59
2022-08-20T21:19:13.183Z,100853.78
2022-08-20T21:21:41.719Z,100852.22
2022-08-20T21:24:10.146Z,100861.78
2022-08-20T21:26:38.361Z,100855.00
2022-08-20T21:29:06.958Z,100853.00
2022-08-20T21:31:36.995Z,100855.41
2022-08-20T21:34:04.465Z,100857.38
2022-08-20T21:36:31.657Z,100849.00
2022-08-20T21:38:58.877Z,100856.22
2022-08-20T21:41:30.057Z,100857.41
2022-08-20T21:43:59.401Z,100857.81
2022-08-20T21:46:28.931Z,100858.63
2022-08-20T21:48:56.636Z,100863.00
2022-08-20T21:51:23.937Z,100861.03
2022-08-20T21:53:51.410Z,100866.63
2022-08-20T21:56:19.062Z,100867.81
2022-08-20T21:58:49.602Z,100870.59
2022-08-20T22:01:17.891Z,100874.19
2022-08-20T22:03:45.180Z,100875.00
2022-08-20T22:06:16.798Z,100873.81
2022-08-20T22:08:44.031Z,100869.81
2022-08-20T22:11:12.086Z,100873.00
2022-08-20T22:13:40.278Z,100873.81
2022-08-20T22:16:18.734Z,100867.03
2022-08-20T22:18:47.049Z,100871.41
2022-08-20T22:21:20.979Z,100860.66
2022-08-20T22:23:48.325Z,100866.22
2022-08-20T22:26:16.571Z,100867.44
2022-08-20T22:28:44.408Z,100868.22
2022-08-20T22:31:22.014Z,100870.63
2022-08-20T22:33:49.270Z,100864.66
2022-08-20T22:36:16.538Z,100863.88
2022-08-20T22:38:43.875Z,100867.47
2022-08-20T22:41:15.490Z,100868.63
2022-08-20T22:43:56.721Z,100871.41
2022-08-20T22:46:30.790Z,100871.03
2022-08-20T22:48:58.191Z,100865.03
2022-08-20T22:51:31.247Z,100862.66
2022-08-20T22:54:00.215Z,100859.47
2022-08-20T22:56:29.845Z,100857.06
2022-08-20T22:58:59.562Z,100853.50
2022-08-20T23:01:28.833Z,100847.53
2022-08-20T23:04:03.122Z,100849.16
2022-08-20T23:06:32.115Z,100848.34
2022-08-20T23:08:59.613Z,100853.91
2022-08-20T23:11:27.047Z,100834.78
2022-08-20T23:13:54.504Z,100837.19
2022-08-20T23:16:21.653Z,100832.00
2022-08-20T23:18:48.943Z,100828.44
2022-08-20T23:21:16.123Z,100822.84
2022-08-20T23:23:43.275Z,100819.69
2022-08-20T23:26:15.622Z,100810.13
2022-08-20T23:28:43.016Z,100812.91
2022-08-20T23:31:10.427Z,100815.28
2022-08-20T23:33:39.843Z,100804.53
2022-08-20T23:36:10.991Z,100806.94
2022-08-20T23:38:38.823Z,100807.72
2022-08-20T23:41:06.102Z,100795.00
2022-08-20T23:43:33.490Z,100798.16
2022-08-20T23:46:04.254Z,100795.78
2022-08-20T23:48:31.954Z,100796.56
2022-08-20T23:50:59.102Z,100789.41
2022-08-20T23:53:26.306Z,100796.16
2022-08-20T23:55:53.627Z,100792.19
2022-08-20T23:58:20.759Z,100785.84
